Time;durP1;ratioP1;P1;durP2;ratioP2;P2;SDS_P1;SDS_P2;PMS_P1;PMS_P2;Temp;Humidity;BMP_temperature;BMP_pressure;BME280_temperature;BME280_humidity;BME280_pressure;Samples;Min_cycle;Max_cycle;Signal;HPM_P1;HPM_P2
2022/04/25 00:02:22;;;;;;;2.80;2.80;;;19.50;62.40;;;;;;5127014;27;45420;-69
2022/04/25 00:04:50;;;;;;;2.80;2.80;;;19.40;62.70;;;;;;5127564;27;43886;-71
2022/04/25 00:07:18;;;;;;;3.00;3.00;;;19.30;63.00;;;;;;5126943;27;43939;-70
2022/04/25 00:09:46;;;;;;;3.07;2.97;;;19.20;63.10;;;;;;5127299;27;46783;-70
2022/04/25 00:12:15;;;;;;;2.80;2.80;;;19.20;63.40;;;;;;5128584;27;43886;-70
2022/04/25 00:14:43;;;;;;;2.90;2.80;;;19.10;63.60;;;;;;5126731;27;44200;-70
2022/04/25 00:17:11;;;;;;;2.83;2.83;;;19.10;64.70;;;;;;5128480;27;44078;-70
2022/04/25 00:19:40;;;;;;;2.60;2.60;;;19.20;63.90;;;;;;5128728;27;43954;-70
2022/04/25 00:22:08;;;;;;;2.77;2.77;;;19.40;63.50;;;;;;5128235;27;43947;-70
2022/04/25 00:24:36;;;;;;;2.70;2.70;;;19.60;62.90;;;;;;5128932;27;43382;-70
2022/04/25 00:27:04;;;;;;;2.97;2.97;;;19.70;62.50;;;;;;5128215;27;44024;-70
2022/04/25 00:29:34;;;;;;;3.00;3.00;;;19.70;62.30;;;;;;5126965;27;46215;-68
2022/04/25 00:32:02;;;;;;;2.97;2.93;;;19.60;62.20;;;;;;5128215;27;43914;-70
2022/04/25 00:34:30;;;;;;;2.80;2.80;;;19.50;62.40;;;;;;5126382;27;43989;-69
2022/04/25 00:36:58;;;;;;;2.80;2.80;;;19.40;62.70;;;;;;5129179;27;44034;-70
2022/04/25 00:39:27;;;;;;;2.97;2.90;;;19.30;63.00;;;;;;5126087;27;45718;-69
2022/04/25 00:41:56;;;;;;;2.87;2.80;;;19.20;63.20;;;;;;5128267;27;44040;-69
2022/04/25 00:44:24;;;;;;;3.20;3.10;;;19.20;63.50;;;;;;5126195;27;44105;-70
2022/04/25 00:46:54;;;;;;;2.90;2.90;;;19.10;63.60;;;;;;5128514;27;43438;-70
2022/04/25 00:49:23;;;;;;;3.13;3.03;;;19.00;63.80;;;;;;5127490;27;43947;-70
2022/04/25 00:51:52;;;;;;;2.77;2.73;;;19.10;64.10;;;;;;5128065;27;43950;-70
2022/04/25 00:54:20;;;;;;;3.10;3.00;;;19.20;63.80;;;;;;5126049;27;43990;-71
2022/04/25 00:56:49;;;;;;;3.00;2.93;;;19.30;63.30;;;;;;5125886;27;43520;-70
2022/04/25 00:59:18;;;;;;;3.00;3.00;;;19.40;63.00;;;;;;5125805;27;45789;-70
2022/04/25 01:01:46;;;;;;;3.07;3.00;;;19.30;62.90;;;;;;5127813;27;43947;-70
2022/04/25 01:04:16;;;;;;;3.13;3.07;;;19.30;63.00;;;;;;5127740;27;43805;-70
2022/04/25 01:06:44;;;;;;;3.17;3.07;;;19.20;63.20;;;;;;5128519;27;44310;-71
2022/04/25 01:09:12;;;;;;;2.87;2.87;;;19.10;63.30;;;;;;5127078;27;43965;-69
2022/04/25 01:11:40;;;;;;;3.23;3.13;;;19.10;63.60;;;;;;5126636;27;44702;-70
2022/04/25 01:14:15;;;;;;;2.93;2.93;;;19.00;63.70;;;;;;5127666;27;43810;-70
2022/04/25 01:16:48;;;;;;;3.10;3.00;;;19.00;63.80;;;;;;5121422;27;43980;-70
2022/04/25 01:19:17;;;;;;;3.07;2.97;;;19.00;64.00;;;;;;5126928;27;45078;-69
2022/04/25 01:21:49;;;;;;;2.80;2.77;;;18.90;64.00;;;;;;5125829;27;44843;-69
2022/04/25 01:27:18;;;;;;;3.23;3.13;;;19.10;64.20;;;;;;5127648;27;43910;-70
2022/04/25 01:29:47;;;;;;;3.07;3.00;;;19.30;63.60;;;;;;5126035;27;43920;-69
2022/04/25 01:32:16;;;;;;;3.40;3.30;;;19.50;63.00;;;;;;5127046;27;44157;-70
2022/04/25 01:34:44;;;;;;;3.30;3.20;;;19.70;62.40;;;;;;5127905;27;43939;-69
2022/04/25 01:37:14;;;;;;;3.47;3.37;;;19.80;62.80;;;;;;5125814;27;43978;-70
2022/04/25 01:39:45;;;;;;;2.97;2.87;;;19.70;61.90;;;;;;5125688;27;46115;-70
2022/04/25 01:42:13;;;;;;;3.13;3.03;;;19.60;61.90;;;;;;5120392;27;43841;-70
2022/04/25 01:44:41;;;;;;;3.00;3.00;;;19.50;62.20;;;;;;5127275;27;43987;-70
2022/04/25 01:47:09;;;;;;;3.47;3.37;;;19.40;62.50;;;;;;5126430;27;44231;-70
2022/04/25 01:49:37;;;;;;;3.40;3.30;;;19.30;62.80;;;;;;5127422;27;43874;-71
2022/04/25 01:52:07;;;;;;;3.57;3.47;;;19.20;63.00;;;;;;5127478;27;43989;-70
2022/04/25 01:54:35;;;;;;;3.60;3.50;;;19.10;63.20;;;;;;5127374;27;43946;-71
2022/04/25 01:57:04;;;;;;;3.33;3.23;;;19.10;63.80;;;;;;5127255;27;43416;-70
2022/04/25 01:59:32;;;;;;;3.30;3.20;;;19.20;63.90;;;;;;5126751;27;43969;-70
2022/04/25 02:02:01;;;;;;;3.20;3.10;;;19.30;63.50;;;;;;5125362;27;44717;-70
2022/04/25 02:04:30;;;;;;;3.23;3.13;;;19.40;63.00;;;;;;5127110;27;43956;-70
2022/04/25 02:06:59;;;;;;;3.30;3.20;;;19.40;62.70;;;;;;5127327;27;43284;-71
2022/04/25 02:09:34;;;;;;;3.10;3.03;;;19.30;62.60;;;;;;5130762;27;44009;-70
2022/04/25 02:12:04;;;;;;;3.23;3.13;;;19.30;62.90;;;;;;5130425;27;43968;-70
2022/04/25 02:14:32;;;;;;;3.50;3.40;;;19.20;63.10;;;;;;5129069;27;43987;-70
2022/04/25 02:17:01;;;;;;;3.40;3.30;;;19.10;63.30;;;;;;5130834;27;43975;-70
2022/04/25 02:19:29;;;;;;;3.43;3.33;;;19.10;63.60;;;;;;5128675;27;46013;-70
2022/04/25 02:21:57;;;;;;;3.70;3.60;;;19.00;63.70;;;;;;5130266;27;44091;-69
2022/04/25 02:24:25;;;;;;;3.47;3.37;;;19.00;63.80;;;;;;5130114;27;43967;-70
2022/04/25 02:26:56;;;;;;;3.57;3.47;;;18.90;63.90;;;;;;5131114;27;44073;-69
2022/04/25 02:29:25;;;;;;;2.93;2.93;;;18.90;64.00;;;;;;5130051;27;43988;-70
2022/04/25 02:31:53;;;;;;;3.30;3.20;;;18.90;64.30;;;;;;5130688;27;43945;-70
2022/04/25 02:34:22;;;;;;;3.40;3.30;;;19.10;64.10;;;;;;5129944;27;44028;-70
2022/04/25 02:36:50;;;;;;;3.33;3.23;;;19.30;63.50;;;;;;5130537;27;44040;-70
2022/04/25 02:39:21;;;;;;;3.73;3.60;;;19.50;63.00;;;;;;5129476;27;43927;-70
2022/04/25 02:41:52;;;;;;;3.43;3.33;;;19.60;62.50;;;;;;5130043;27;43981;-69
2022/04/25 02:44:21;;;;;;;3.20;3.10;;;19.70;62.20;;;;;;5129954;27;44311;-70
2022/04/25 02:46:50;;;;;;;3.23;3.13;;;19.60;62.10;;;;;;5128918;27;44026;-71
2022/04/25 02:49:18;;;;;;;3.30;3.10;;;19.50;62.20;;;;;;5129324;27;43973;-70
2022/04/25 02:51:46;;;;;;;3.57;3.47;;;19.40;63.20;;;;;;5129881;27;44059;-70
2022/04/25 02:54:14;;;;;;;3.40;3.20;;;19.30;62.80;;;;;;5129563;27;43945;-70
2022/04/25 02:56:42;;;;;;;3.40;3.30;;;19.20;63.00;;;;;;5130233;27;44068;-70
2022/04/25 02:59:10;;;;;;;3.80;3.70;;;19.10;63.30;;;;;;5129266;27;43989;-71
2022/04/25 03:01:38;;;;;;;3.43;3.33;;;19.10;63.50;;;;;;5128679;27;45855;-70
2022/04/25 03:04:07;;;;;;;3.80;3.60;;;19.10;64.00;;;;;;5129459;27;43827;-70
2022/04/25 03:06:35;;;;;;;3.87;3.60;;;19.20;63.90;;;;;;5130454;27;44267;-70
2022/04/25 03:09:03;;;;;;;4.10;3.80;;;19.30;63.30;;;;;;5129875;27;44043;-70
2022/04/25 03:11:40;;;;;;;3.17;3.07;;;19.40;63.00;;;;;;5128198;27;45054;-70
2022/04/25 03:14:14;;;;;;;3.60;3.37;;;19.40;62.80;;;;;;5129341;27;43941;-70
2022/04/25 03:16:49;;;;;;;3.70;3.50;;;19.30;62.90;;;;;;5129710;27;43960;-70
2022/04/25 03:19:19;;;;;;;3.37;3.27;;;19.20;63.00;;;;;;5126600;27;45295;-69
2022/04/25 03:21:48;;;;;;;3.63;3.40;;;19.20;63.20;;;;;;5127916;27;44095;-70
2022/04/25 03:24:16;;;;;;;3.63;3.53;;;19.10;63.30;;;;;;5129519;27;43339;-70
2022/04/25 03:26:49;;;;;;;3.70;3.60;;;19.10;63.60;;;;;;5128089;27;43928;-70
2022/04/25 03:29:17;;;;;;;3.60;3.50;;;19.00;63.60;;;;;;5127297;27;45350;-70
2022/04/25 03:31:45;;;;;;;3.63;3.53;;;19.00;63.80;;;;;;5127626;27;46347;-70
2022/04/25 03:34:13;;;;;;;3.70;3.60;;;19.00;63.80;;;;;;5126993;27;43481;-70
2022/04/25 03:36:44;;;;;;;3.53;3.33;;;19.00;64.20;;;;;;5128242;27;43964;-71
2022/04/25 03:39:12;;;;;;;3.70;3.50;;;19.10;64.00;;;;;;5128962;27;43973;-70
2022/04/25 03:41:42;;;;;;;4.00;3.90;;;19.30;63.60;;;;;;5129106;27;43413;-70
2022/04/25 03:44:10;;;;;;;3.50;3.40;;;19.50;63.10;;;;;;5128776;27;43877;-70
2022/04/25 03:46:39;;;;;;;4.10;3.90;;;19.60;62.40;;;;;;5129490;27;44004;-70
2022/04/25 03:49:07;;;;;;;4.27;3.93;;;19.70;62.10;;;;;;5127270;27;45884;-69
2022/04/25 03:51:35;;;;;;;3.70;3.60;;;19.70;62.00;;;;;;5129624;27;43399;-70
2022/04/25 03:54:04;;;;;;;4.77;4.43;;;19.60;62.10;;;;;;5127499;27;44047;-71
2022/04/25 03:59:17;;;;;;;4.70;4.37;;;19.40;62.60;;;;;;5128166;27;43945;-70
2022/04/25 04:01:46;;;;;;;5.87;4.40;;;19.30;62.90;;;;;;5127136;27;44798;-70
2022/04/25 04:04:15;;;;;;;4.60;4.30;;;19.20;63.10;;;;;;5128446;27;44369;-70
2022/04/25 04:06:42;;;;;;;5.70;4.13;;;19.10;63.30;;;;;;5129529;27;43410;-71
2022/04/25 04:11:57;;;;;;;5.57;5.07;;;19.10;63.80;;;;;;5129076;27;44040;-70
2022/04/25 04:14:25;;;;;;;5.53;5.03;;;19.20;63.30;;;;;;5126694;27;44016;-70
2022/04/25 04:16:55;;;;;;;5.83;5.37;;;19.30;63.10;;;;;;5127709;27;43733;-70
2022/04/25 04:19:26;;;;;;;5.43;5.00;;;19.30;63.00;;;;;;5128311;27;43968;-69
2022/04/25 04:21:54;;;;;;;4.97;4.47;;;19.20;63.10;;;;;;5127062;27;46449;-70
2022/04/25 04:24:23;;;;;;;4.47;4.20;;;19.20;63.30;;;;;;5127869;27;43954;-71
2022/04/25 04:26:51;;;;;;;4.90;4.50;;;19.10;63.50;;;;;;5129262;27;43984;-70
2022/04/25 04:29:20;;;;;;;5.10;4.77;;;19.00;63.70;;;;;;5128016;27;44956;-70
2022/04/25 04:31:48;;;;;;;5.10;4.70;;;19.00;64.00;;;;;;5125973;27;44039;-69
2022/04/25 04:34:15;;;;;;;6.30;5.20;;;19.00;64.10;;;;;;5125371;27;43440;-70
2022/04/25 04:36:43;;;;;;;4.80;4.50;;;18.90;64.20;;;;;;5128994;27;43928;-70
2022/04/25 04:39:11;;;;;;;5.33;4.80;;;18.90;64.30;;;;;;5126330;27;46060;-70
2022/04/25 04:41:40;;;;;;;4.60;4.37;;;18.90;64.70;;;;;;5128984;27;44141;-70
2022/04/25 04:44:08;;;;;;;4.83;4.40;;;18.90;64.70;;;;;;5129133;27;43876;-70
2022/04/25 04:46:36;;;;;;;5.43;5.03;;;19.10;64.50;;;;;;5129345;27;44003;-70
2022/04/25 04:49:04;;;;;;;4.90;4.60;;;19.30;64.00;;;;;;5126708;27;45750;-70
2022/04/25 04:51:32;;;;;;;4.90;4.60;;;19.50;63.50;;;;;;5128361;27;44026;-70
2022/04/25 04:54:01;;;;;;;6.47;4.87;;;19.60;63.20;;;;;;5128713;27;43846;-72
2022/04/25 04:56:30;;;;;;;5.60;4.87;;;19.60;63.00;;;;;;5129148;27;43430;-71
2022/04/25 04:58:59;;;;;;;5.07;4.57;;;19.50;63.00;;;;;;5128155;27;44349;-70
2022/04/25 05:01:27;;;;;;;5.23;4.83;;;19.40;63.10;;;;;;5128128;27;43966;-70
2022/04/25 05:03:58;;;;;;;5.10;4.70;;;19.30;63.40;;;;;;5128274;27;44071;-70
2022/04/25 05:06:35;;;;;;;5.90;4.93;;;19.20;63.60;;;;;;5129105;27;43460;-70
2022/04/25 05:09:03;;;;;;;4.87;4.50;;;19.10;63.80;;;;;;5128023;27;44050;-70
2022/04/25 05:11:31;;;;;;;5.83;5.33;;;19.10;64.10;;;;;;5128211;27;43339;-69
2022/04/25 05:14:07;;;;;;;6.67;4.80;;;19.00;64.20;;;;;;5128214;27;44004;-71
2022/04/25 05:16:35;;;;;;;4.93;4.60;;;19.00;64.70;;;;;;5128748;27;43914;-70
2022/04/25 05:19:03;;;;;;;5.30;4.90;;;19.10;64.70;;;;;;5121094;27;43984;-70
2022/04/25 05:21:34;;;;;;;7.20;5.13;;;19.20;64.20;;;;;;5121778;27;43961;-70
2022/04/25 05:24:05;;;;;;;5.10;4.80;;;19.30;63.70;;;;;;5126088;27;44013;-71
2022/04/25 05:26:35;;;;;;;5.80;5.30;;;19.30;63.50;;;;;;5128624;27;43907;-71
2022/04/25 05:29:10;;;;;;;5.10;4.80;;;19.30;63.50;;;;;;5126040;27;45578;-70
2022/04/25 05:31:37;;;;;;;5.30;4.80;;;19.20;63.70;;;;;;5127812;27;44064;-70
2022/04/25 05:34:05;;;;;;;5.20;4.80;;;19.20;63.90;;;;;;5126204;27;44059;-69
2022/04/25 05:36:33;;;;;;;5.60;5.20;;;19.10;64.00;;;;;;5128789;27;43885;-70
2022/04/25 05:39:01;;;;;;;5.80;5.23;;;19.00;64.30;;;;;;5127479;27;43900;-70
2022/04/25 05:41:32;;;;;;;4.70;4.40;;;19.00;64.50;;;;;;5127794;27;43992;-70
2022/04/25 05:44:10;;;;;;;5.30;5.00;;;18.90;64.60;;;;;;5127341;27;44278;-69
2022/04/25 05:46:38;;;;;;;5.47;4.97;;;19.00;64.80;;;;;;5126914;27;43395;-70
2022/04/25 05:52:00;;;;;;;5.57;5.17;;;18.90;65.10;;;;;;5127926;27;44285;-70
2022/04/25 05:54:28;;;;;;;5.40;5.10;;;19.00;64.80;;;;;;5127837;27;43348;-70
2022/04/25 05:56:56;;;;;;;6.30;5.90;;;19.30;64.50;;;;;;5127081;27;43881;-70
2022/04/25 05:59:27;;;;;;;5.50;5.10;;;19.50;64.00;;;;;;5127129;27;44004;-70
2022/04/25 06:01:56;;;;;;;5.10;4.90;;;19.60;63.20;;;;;;5126148;27;44964;-69
2022/04/25 06:04:24;;;;;;;5.57;5.27;;;19.70;63.00;;;;;;5125909;27;44038;-70
2022/04/25 06:06:57;;;;;;;5.83;5.40;;;19.60;62.90;;;;;;5127957;27;43809;-69
2022/04/25 06:09:26;;;;;;;5.07;4.77;;;19.50;63.00;;;;;;5127408;27;44023;-70
2022/04/25 06:11:54;;;;;;;5.17;4.87;;;19.40;63.20;;;;;;5127274;27;43893;-70
2022/04/25 06:14:22;;;;;;;5.10;4.80;;;19.30;63.50;;;;;;5127263;27;43939;-70
2022/04/25 06:16:51;;;;;;;5.17;4.87;;;19.20;63.70;;;;;;5127456;27;44069;-70
2022/04/25 06:19:19;;;;;;;5.40;5.00;;;19.10;64.00;;;;;;5126953;27;44444;-70
2022/04/25 06:21:47;;;;;;;5.97;5.57;;;19.10;64.20;;;;;;5127322;27;43435;-70
2022/04/25 06:24:15;;;;;;;5.80;5.50;;;19.00;64.50;;;;;;5127048;27;44031;-71
2022/04/25 06:26:43;;;;;;;5.53;5.23;;;19.10;64.60;;;;;;5127784;27;44046;-70
2022/04/25 06:29:11;;;;;;;5.77;5.37;;;19.30;64.30;;;;;;5125115;27;45615;-70
2022/04/25 06:31:41;;;;;;;5.27;5.07;;;19.40;63.80;;;;;;5127393;27;43866;-70
2022/04/25 06:34:10;;;;;;;6.43;6.03;;;19.40;63.40;;;;;;5125077;27;44065;-70
2022/04/25 06:36:41;;;;;;;6.20;5.80;;;19.30;63.30;;;;;;5127677;27;43924;-70
2022/04/25 06:39:12;;;;;;;6.03;5.73;;;19.30;63.50;;;;;;5126602;27;44264;-70
2022/04/25 06:41:40;;;;;;;5.57;5.27;;;19.20;63.70;;;;;;5127331;27;43407;-70
2022/04/25 06:44:08;;;;;;;5.47;5.27;;;19.20;64.00;;;;;;5108090;27;44060;-70
2022/04/25 06:46:36;;;;;;;6.10;5.70;;;19.10;64.20;;;;;;5108919;27;43690;-69
2022/04/25 06:49:23;;;;;;;5.70;5.40;;;19.00;64.30;;;;;;5126639;27;43978;-71
2022/04/25 06:51:53;;;;;;;6.03;5.67;;;19.00;64.50;;;;;;5126793;27;44023;-70
2022/04/25 06:54:21;;;;;;;5.57;5.27;;;19.00;64.60;;;;;;5120471;27;43357;-71
2022/04/25 06:56:49;;;;;;;5.60;5.30;;;18.90;64.70;;;;;;5124364;27;43416;-70
2022/04/25 06:59:17;;;;;;;6.07;5.77;;;19.00;65.10;;;;;;5128411;27;46310;-70
2022/04/25 07:01:45;;;;;;;5.50;5.20;;;19.10;64.70;;;;;;5123374;27;43265;-70
2022/04/25 07:04:13;;;;;;;5.57;5.37;;;19.30;64.40;;;;;;5129922;27;43985;-70
2022/04/25 07:06:41;;;;;;;5.57;5.23;;;19.50;63.90;;;;;;5124869;27;43497;-70
2022/04/25 07:09:12;;;;;;;5.53;5.10;;;19.60;63.20;;;;;;5144051;27;44029;-70
2022/04/25 07:11:43;;;;;;;6.20;5.90;;;19.70;63.10;;;;;;5151230;27;44014;-69
2022/04/25 07:14:12;;;;;;;5.43;5.20;;;19.60;63.00;;;;;;5150610;27;43334;-69
2022/04/25 07:16:40;;;;;;;5.40;5.17;;;19.50;63.00;;;;;;5151228;27;43441;-70
2022/04/25 07:19:08;;;;;;;5.23;5.03;;;19.40;63.30;;;;;;5131838;27;45352;-70
2022/04/25 07:30:06;;;;;;;5.90;5.60;;;19.10;64.30;;;;;;5117714;27;43961;-70
2022/04/25 07:32:37;;;;;;;6.13;5.83;;;19.10;64.80;;;;;;5150744;27;43464;-69
2022/04/25 07:35:06;;;;;;;5.87;5.57;;;19.20;64.60;;;;;;5150548;27;43902;-71
2022/04/25 07:37:34;;;;;;;5.77;5.47;;;19.40;64.20;;;;;;5132126;27;43981;-70
2022/04/25 07:40:06;;;;;;;5.63;5.33;;;19.50;63.70;;;;;;5150289;27;43977;-70
2022/04/25 07:42:34;;;;;;;5.70;5.50;;;19.50;63.50;;;;;;5150548;27;43925;-71
2022/04/25 07:45:02;;;;;;;5.60;5.30;;;19.40;63.50;;;;;;5150560;27;43332;-70
2022/04/25 07:47:32;;;;;;;5.37;5.17;;;19.30;63.60;;;;;;5150864;27;43933;-70
2022/04/25 07:50:00;;;;;;;5.57;5.37;;;19.20;63.80;;;;;;5131518;27;46213;-70
2022/04/25 07:52:28;;;;;;;5.03;4.83;;;19.20;64.10;;;;;;5131193;27;44341;-69
2022/04/25 07:54:56;;;;;;;5.13;4.93;;;19.10;64.30;;;;;;5150551;27;44032;-70
2022/04/25 07:57:26;;;;;;;5.10;4.90;;;19.10;64.40;;;;;;5150829;27;43390;-70
2022/04/25 07:59:54;;;;;;;5.23;5.03;;;19.00;64.50;;;;;;5130523;27;45722;-70
2022/04/25 08:02:23;;;;;;;5.47;5.27;;;19.00;64.60;;;;;;5150006;27;44135;-69
2022/04/25 08:04:53;;;;;;;5.70;5.40;;;19.00;65.00;;;;;;5131246;27;43907;-70
2022/04/25 08:07:22;;;;;;;5.77;5.57;;;19.10;65.20;;;;;;5150410;27;43416;-70
2022/04/25 08:09:50;;;;;;;5.23;5.03;;;19.20;65.00;;;;;;5149975;27;44094;-70
2022/04/25 08:18:04;;;;;;;6.83;6.43;;;19.70;63.70;;;;;;5150176;27;43993;-70
2022/04/25 08:20:34;;;;;;;6.53;6.23;;;19.90;63.10;;;;;;5149444;27;43819;-70
2022/04/25 08:23:07;;;;;;;6.27;5.97;;;20.10;62.50;;;;;;5130914;27;44002;-70
2022/04/25 08:25:35;;;;;;;6.67;6.33;;;20.20;61.80;;;;;;5143530;27;43361;-70
2022/04/25 08:28:06;;;;;;;6.17;5.87;;;20.40;61.70;;;;;;5124876;27;44059;-70
2022/04/25 08:30:35;;;;;;;6.40;6.20;;;20.50;61.10;;;;;;5149340;27;44011;-70
2022/04/25 08:33:04;;;;;;;6.37;6.07;;;20.60;61.10;;;;;;5130968;27;45979;-70
2022/04/25 08:35:32;;;;;;;6.30;6.10;;;20.50;60.70;;;;;;5130431;27;43823;-71
2022/04/25 08:37:59;;;;;;;6.50;6.20;;;20.40;60.80;;;;;;5149981;27;43948;-70
2022/04/25 08:40:28;;;;;;;5.67;5.47;;;20.30;62.10;;;;;;5148882;27;44794;-70
2022/04/25 08:42:56;;;;;;;5.80;5.60;;;20.10;61.70;;;;;;5149577;27;43728;-70
2022/04/25 08:45:30;;;;;;;5.77;5.57;;;19.90;61.90;;;;;;5149609;27;43350;-70
2022/04/25 08:48:00;;;;;;;6.20;6.00;;;19.80;62.40;;;;;;5150244;27;43938;-70
2022/04/25 08:50:28;;;;;;;5.90;5.50;;;19.60;62.70;;;;;;5149204;27;43921;-71
2022/04/25 08:52:57;;;;;;;5.83;5.63;;;19.50;63.80;;;;;;5130388;27;44634;-69
2022/04/25 08:55:27;;;;;;;6.03;5.83;;;19.60;64.00;;;;;;5149746;27;43696;-71
2022/04/25 08:57:55;;;;;;;5.80;5.60;;;19.60;63.70;;;;;;5149664;27;44131;-69
2022/04/25 09:00:23;;;;;;;5.17;4.97;;;19.70;63.50;;;;;;5148938;27;43934;-70
2022/04/25 09:02:51;;;;;;;5.63;5.33;;;19.60;63.40;;;;;;5149335;27;43954;-70
2022/04/25 09:05:21;;;;;;;5.60;5.40;;;19.50;63.30;;;;;;5130180;27;43995;-70
2022/04/25 09:07:49;;;;;;;5.30;5.10;;;19.50;63.30;;;;;;5130991;27;44042;-72
2022/04/25 09:10:18;;;;;;;5.57;5.37;;;19.40;63.60;;;;;;5148972;27;45084;-71
2022/04/25 09:12:47;;;;;;;5.40;5.20;;;19.30;63.80;;;;;;5148944;27;43962;-70
2022/04/25 09:15:18;;;;;;;5.73;5.53;;;19.20;63.90;;;;;;5129795;27;44384;-70
2022/04/25 09:17:55;;;;;;;5.23;5.03;;;19.20;64.10;;;;;;5148568;27;44011;-70
2022/04/25 09:20:25;;;;;;;5.53;5.33;;;19.20;64.40;;;;;;5148344;27;44821;-70
2022/04/25 09:22:55;;;;;;;5.67;5.30;;;19.10;64.50;;;;;;5148620;27;43967;-70
2022/04/25 09:25:24;;;;;;;5.17;5.00;;;19.10;65.30;;;;;;5130085;27;44048;-70
2022/04/25 09:28:15;;;;;;;5.43;5.23;;;19.20;65.20;;;;;;5129766;27;43468;-70
2022/04/25 09:30:55;;;;;;;5.03;4.93;;;19.40;64.70;;;;;;5148590;27;43960;-70
2022/04/25 09:33:24;;;;;;;5.10;4.90;;;19.50;64.20;;;;;;5148316;27;43446;-70
2022/04/25 09:35:55;;;;;;;5.17;4.97;;;19.70;63.70;;;;;;5129823;27;43995;-70
2022/04/25 09:38:30;;;;;;;5.23;5.03;;;19.70;63.40;;;;;;5130251;27;44044;-70
2022/04/25 09:40:58;;;;;;;5.30;5.10;;;19.70;63.40;;;;;;5148302;27;44001;-70
2022/04/25 09:43:29;;;;;;;4.80;4.70;;;19.60;63.40;;;;;;5129370;27;44541;-70
2022/04/25 09:46:00;;;;;;;5.00;4.80;;;19.50;63.30;;;;;;5129957;27;43429;-70
2022/04/25 09:48:30;;;;;;;4.80;4.70;;;19.40;63.40;;;;;;5148918;27;43971;-71
2022/04/25 09:51:03;;;;;;;5.63;5.33;;;19.30;63.70;;;;;;5129554;27;45690;-70
2022/04/25 09:53:42;;;;;;;4.97;4.87;;;19.30;64.00;;;;;;5142015;27;43900;-70
2022/04/25 09:56:11;;;;;;;5.07;4.97;;;19.20;64.70;;;;;;5148466;27;43994;-70
2022/04/25 09:58:40;;;;;;;4.73;4.63;;;19.20;65.10;;;;;;5149443;27;44092;-70
2022/04/25 10:01:15;;;;;;;5.43;5.03;;;19.30;64.70;;;;;;5129087;27;45825;-69
2022/04/25 10:03:44;;;;;;;4.60;4.50;;;19.40;64.40;;;;;;5148617;27;43406;-69
2022/04/25 10:06:13;;;;;;;4.70;4.60;;;19.40;64.30;;;;;;5148088;27;43951;-71
2022/04/25 10:08:41;;;;;;;4.57;4.47;;;19.40;64.10;;;;;;5149028;27;43411;-70
2022/04/25 10:11:09;;;;;;;4.70;4.60;;;19.30;63.90;;;;;;5147885;27;44028;-69
2022/04/25 10:13:38;;;;;;;5.07;4.77;;;19.30;64.10;;;;;;5148375;27;43375;-70
2022/04/25 10:16:06;;;;;;;4.93;4.73;;;19.20;64.20;;;;;;5148498;27;43977;-70
2022/04/25 10:18:34;;;;;;;5.10;4.90;;;19.20;64.40;;;;;;5150412;27;44014;-71
2022/04/25 10:21:04;;;;;;;4.40;4.30;;;19.10;64.50;;;;;;5147898;27;43889;-70
2022/04/25 10:23:33;;;;;;;4.47;4.37;;;19.10;64.70;;;;;;5129302;27;45211;-70
2022/04/25 10:26:01;;;;;;;5.63;5.10;;;19.00;64.70;;;;;;5147889;27;44266;-70
2022/04/25 10:28:30;;;;;;;4.93;4.73;;;19.00;64.90;;;;;;5129935;27;43467;-70
2022/04/25 10:31:06;;;;;;;5.30;5.00;;;19.10;65.00;;;;;;5151612;27;44106;-70
2022/04/25 10:33:53;;;;;;;5.20;4.80;;;19.20;65.00;;;;;;5151621;27;44023;-70
2022/04/25 10:36:42;;;;;;;4.80;4.60;;;19.40;64.70;;;;;;5132423;27;44015;-70
2022/04/25 10:39:13;;;;;;;4.50;4.30;;;19.60;64.10;;;;;;5152011;27;44016;-69
2022/04/25 10:44:53;;;;;;;4.47;4.37;;;19.70;63.50;;;;;;5151258;27;43950;-69
2022/04/25 10:47:21;;;;;;;4.77;4.67;;;19.60;63.50;;;;;;5151633;27;44071;-69
2022/04/25 10:49:49;;;;;;;4.23;4.13;;;19.50;63.40;;;;;;5152028;27;43355;-70
2022/04/25 10:53:01;;;;;;;4.20;4.10;;;19.40;63.60;;;;;;5132105;27;46060;-70
2022/04/25 10:55:42;;;;;;;4.53;4.13;;;19.30;63.90;;;;;;5066254;28;43898;-69
2022/04/25 10:58:18;;;;;;;4.10;4.00;;;19.20;64.10;;;;;;5066347;28;44138;-70
2022/04/25 11:00:50;;;;;;;4.30;4.20;;;19.20;64.40;;;;;;5123420;27;44156;-70
2022/04/25 11:03:19;;;;;;;4.47;4.17;;;19.10;64.70;;;;;;5150751;27;44687;-70
2022/04/25 11:05:48;;;;;;;5.00;4.70;;;19.20;65.20;;;;;;5125716;27;44933;-70
2022/04/25 11:08:33;;;;;;;4.20;4.00;;;19.20;65.10;;;;;;5144347;27;43989;-70
2022/04/25 11:11:13;;;;;;;4.10;4.00;;;19.40;64.70;;;;;;5151710;27;43849;-70
2022/04/25 11:14:24;;;;;;;4.17;4.00;;;19.40;64.30;;;;;;5151003;27;44958;-71
2022/04/25 11:17:10;;;;;;;4.20;4.10;;;19.40;64.20;;;;;;5150541;27;44151;-70
2022/04/25 11:19:45;;;;;;;4.50;4.30;;;19.30;64.10;;;;;;5151253;27;43989;-70
2022/04/25 11:22:28;;;;;;;3.77;3.67;;;19.20;64.30;;;;;;5144009;27;43936;-70
2022/04/25 11:29:08;;;;;;;3.80;3.70;;;19.10;64.60;;;;;;5131321;27;43947;-70
2022/04/25 11:31:37;;;;;;;4.13;4.03;;;19.10;64.90;;;;;;5151400;27;43777;-69
2022/04/25 11:34:07;;;;;;;3.97;3.87;;;19.10;65.00;;;;;;5151145;27;43860;-70
2022/04/25 11:36:40;;;;;;;4.60;4.30;;;19.00;65.00;;;;;;5150892;27;43983;-70
2022/04/25 11:41:53;;;;;;;3.90;3.80;;;19.10;65.30;;;;;;5150026;27;43779;-69
2022/04/25 11:44:23;;;;;;;3.67;3.57;;;19.30;64.90;;;;;;5150443;27;44222;-70
2022/04/25 11:46:51;;;;;;;4.00;3.90;;;19.50;64.60;;;;;;5150558;27;43981;-70
2022/04/25 11:49:27;;;;;;;3.67;3.57;;;19.60;64.00;;;;;;5150381;27;44024;-70
2022/04/25 11:51:58;;;;;;;3.80;3.70;;;19.70;63.80;;;;;;5150764;27;43834;-70
2022/04/25 11:54:28;;;;;;;3.80;3.70;;;19.60;64.30;;;;;;5150848;27;43918;-69
2022/04/25 11:57:00;;;;;;;3.50;3.40;;;19.50;63.60;;;;;;5150472;27;43766;-70
2022/04/25 11:59:29;;;;;;;3.60;3.50;;;19.50;63.80;;;;;;5150267;27;43376;-71
2022/04/25 12:01:57;;;;;;;3.77;3.67;;;19.30;63.90;;;;;;5131341;27;43975;-70
2022/04/25 12:04:27;;;;;;;4.00;3.90;;;19.30;64.20;;;;;;5150320;27;44255;-70
2022/04/25 12:06:57;;;;;;;3.50;3.40;;;19.20;64.50;;;;;;5149994;27;44721;-70
2022/04/25 12:17:51;;;;;;;3.97;3.87;;;19.40;64.70;;;;;;5149676;27;43961;-70
2022/04/25 12:20:20;;;;;;;4.00;3.90;;;19.40;64.20;;;;;;5131366;27;44178;-71
2022/04/25 12:22:52;;;;;;;3.93;3.73;;;19.40;64.20;;;;;;5131192;27;44037;-70
2022/04/25 12:25:21;;;;;;;4.00;3.80;;;19.30;64.20;;;;;;5150251;27;43883;-70
2022/04/25 12:28:07;;;;;;;3.90;3.80;;;19.20;64.30;;;;;;5149680;27;44045;-70
2022/04/25 12:30:49;;;;;;;3.80;3.70;;;19.20;64.60;;;;;;5149603;27;44014;-71
2022/04/25 12:33:18;;;;;;;3.90;3.80;;;19.10;64.60;;;;;;5149116;27;43969;-71
2022/04/25 12:35:47;;;;;;;3.90;3.80;;;19.10;64.90;;;;;;5150220;27;43985;-70
2022/04/25 12:38:35;;;;;;;3.50;3.40;;;19.10;65.00;;;;;;5148976;27;43610;-70
2022/04/25 12:41:04;;;;;;;4.40;4.10;;;19.00;65.00;;;;;;5149651;27;43963;-71
2022/04/25 12:43:43;;;;;;;4.17;3.97;;;19.00;65.30;;;;;;5149572;27;43859;-70
2022/04/25 12:46:13;;;;;;;4.13;3.83;;;19.10;65.40;;;;;;5143651;27;43903;-70
2022/04/25 12:48:58;;;;;;;3.80;3.63;;;19.20;65.10;;;;;;5149373;27;43976;-70
2022/04/25 12:51:30;;;;;;;4.13;3.73;;;19.40;64.60;;;;;;5148847;27;43981;-70
2022/04/25 12:53:58;;;;;;;6.87;4.57;;;19.60;64.20;;;;;;5148853;27;43895;-69
2022/04/25 12:56:26;;;;;;;4.00;3.90;;;19.60;63.80;;;;;;5149429;27;44061;-70
2022/04/25 12:58:54;;;;;;;4.83;4.43;;;19.60;63.50;;;;;;5149298;27;44656;-69
2022/04/25 13:01:32;;;;;;;3.97;3.87;;;19.60;63.60;;;;;;5129976;27;46263;-70
2022/04/25 13:04:07;;;;;;;4.43;4.00;;;19.50;63.60;;;;;;5149464;27;44549;-70
2022/04/25 13:06:37;;;;;;;5.17;4.67;;;19.40;63.80;;;;;;5150134;27;43960;-70
2022/04/25 13:09:05;;;;;;;4.40;4.10;;;19.30;64.00;;;;;;5130270;27;44944;-70
2022/04/25 13:11:52;;;;;;;4.30;4.10;;;19.20;64.10;;;;;;5144689;27;43918;-70
2022/04/25 13:14:20;;;;;;;4.67;4.37;;;19.20;64.30;;;;;;5149300;27;43945;-70
2022/04/25 13:16:49;;;;;;;5.83;4.20;;;19.10;64.80;;;;;;5130328;27;43948;-70
2022/04/25 13:19:17;;;;;;;4.27;4.07;;;19.20;65.10;;;;;;5148553;27;44750;-70
2022/04/25 13:21:45;;;;;;;4.60;4.30;;;19.30;65.00;;;;;;5149156;27;44389;-70
2022/04/25 13:24:13;;;;;;;4.33;4.13;;;19.40;64.60;;;;;;5148766;27;43393;-70
2022/04/25 13:26:41;;;;;;;3.70;3.60;;;19.40;64.10;;;;;;5149362;27;43903;-70
2022/04/25 13:29:09;;;;;;;4.13;3.93;;;19.40;64.10;;;;;;5129709;27;46573;-70
2022/04/25 13:31:37;;;;;;;3.90;3.60;;;19.30;64.10;;;;;;5149014;27;44102;-70
2022/04/25 13:34:07;;;;;;;3.87;3.70;;;19.20;64.20;;;;;;5148696;27;43446;-69
2022/04/25 13:36:35;;;;;;;4.20;3.90;;;19.20;64.40;;;;;;5130263;27;44191;-71
2022/04/25 13:39:03;;;;;;;4.07;3.80;;;19.10;64.60;;;;;;5148501;27;44047;-70
2022/04/25 13:41:31;;;;;;;4.10;3.80;;;19.10;64.70;;;;;;5148275;27;43933;-69
2022/04/25 13:44:04;;;;;;;3.70;3.60;;;19.10;64.90;;;;;;5148443;27;43944;-70
2022/04/25 13:46:33;;;;;;;4.47;4.10;;;19.10;65.00;;;;;;5130361;27;43497;-70
2022/04/25 13:49:09;;;;;;;4.10;3.90;;;19.00;65.00;;;;;;5148089;27;43937;-70